.
WxDataArchive / Data Records for 2016-05-01
2016-04-30 May 2016 2016-05-02

Data Records for Sunday, 01 May 2016

Time	Temp	Chill	HIndex	Humid	Dewpt	 Wind 	HiWind	WindDir	Rain 	Barom
-----	----	-----	------	-----	-----	------	------	-------	-----	-----
00:00	48.8	48.8	48.8	96	47.7	0	3	90	0.01	29.850 
00:05	48.8	48.8	48.8	96	47.7	0	2	90	0.00	29.850 
00:10	48.6	48.6	48.6	96	47.5	0	2	90	0.00	29.850 
00:15	48.6	48.6	48.6	96	47.5	0	3	90	0.00	29.859 
00:20	48.6	48.6	48.6	96	47.5	0	1	90	0.00	29.859 
00:25	48.6	48.6	48.6	96	47.5	1	6	112	0.00	29.859 
00:30	48.6	48.6	48.6	96	47.5	0	2	112	0.00	29.862 
00:35	48.6	48.6	48.6	96	47.5	0	3	112	0.00	29.862 
00:40	48.6	48.6	48.6	96	47.5	1	5	22	0.00	29.862 
00:45	48.6	48.6	48.6	96	47.5	0	3	90	0.00	29.854 
00:50	48.6	48.6	48.6	96	47.5	1	3	90	0.00	29.854 
00:55	48.8	48.8	48.8	96	47.7	2	5	90	0.00	29.854 
01:00	48.8	48.8	48.8	96	47.7	0	1	90	0.00	29.852 
01:05	48.8	48.8	48.8	96	47.7	1	4	90	0.00	29.852 
01:10	48.8	48.8	48.8	96	47.7	1	4	90	0.00	29.852 
01:15	48.8	48.8	48.8	96	47.7	1	4	90	0.00	29.863 
01:20	48.8	48.8	48.8	96	47.7	0	2	90	0.01	29.863 
01:25	48.8	48.8	48.8	96	47.7	0	3	90	0.00	29.863 
01:30	48.8	48.8	48.8	96	47.7	0	2	90	0.00	29.856 
01:35	48.8	48.8	48.8	96	47.7	0	0	---	0.00	29.856 
01:40	48.8	48.8	48.8	96	47.7	0	0	---	0.00	29.856 
01:45	48.8	48.8	48.8	96	47.7	0	2	90	0.00	29.858 
01:50	48.8	48.8	48.8	96	47.7	0	3	90	0.00	29.858 
01:55	48.8	48.8	48.8	96	47.7	0	2	90	0.00	29.858 
02:00	48.8	48.8	48.8	96	47.7	0	1	90	0.00	29.854 
02:05	48.8	48.8	48.8	96	47.7	0	1	90	0.00	29.854 
02:10	48.8	48.8	48.8	96	47.7	0	1	90	0.00	29.854 
02:15	48.8	48.8	48.8	96	47.7	0	1	90	0.00	29.849 
02:20	48.9	48.9	48.9	96	47.8	0	2	90	0.00	29.849 
02:25	48.9	48.9	48.9	96	47.8	0	1	90	0.00	29.849 
02:30	48.9	48.9	48.9	96	47.8	0	3	90	0.00	29.836 
02:35	48.9	48.9	48.9	96	47.8	0	4	90	0.00	29.836 
02:40	48.9	48.9	48.9	96	47.8	0	3	90	0.00	29.836 
02:45	48.9	48.9	48.9	96	47.8	0	3	90	0.00	29.833 
02:50	48.9	48.9	48.9	96	47.8	0	1	90	0.00	29.833 
02:55	48.9	48.9	48.9	96	47.8	0	3	90	0.00	29.833 
03:00	48.9	48.9	48.9	96	47.8	0	1	90	0.00	29.838 
03:05	48.9	48.9	48.9	96	47.8	0	1	90	0.00	29.838 
03:10	49.1	49.1	49.1	96	48.0	0	2	90	0.00	29.838 
03:15	49.1	49.1	49.1	96	48.0	1	3	90	0.00	29.847 
03:20	49.1	49.1	49.1	96	48.0	0	2	90	0.00	29.847 
03:25	49.1	49.1	49.1	96	48.0	0	2	90	0.00	29.847 
03:30	49.1	49.1	49.1	96	48.0	0	2	90	0.01	29.843 
03:35	49.2	49.2	49.2	96	48.1	0	2	90	0.00	29.843 
03:40	49.2	49.2	49.2	96	48.1	0	1	90	0.00	29.843 
03:45	49.2	49.2	49.2	96	48.1	0	2	90	0.00	29.839 
03:50	49.2	49.2	49.2	96	48.1	0	1	90	0.00	29.839 
03:55	49.2	49.2	49.2	96	48.1	0	2	90	0.00	29.839 
04:00	49.2	49.2	49.2	96	48.1	0	2	90	0.00	29.836 
04:05	49.2	49.2	49.2	96	48.1	0	1	90	0.00	29.836 
04:10	49.2	49.2	49.2	96	48.1	0	4	90	0.00	29.836 
04:15	49.2	49.2	49.2	96	48.1	0	2	90	0.00	29.839 
04:20	49.2	49.2	49.2	96	48.1	0	2	90	0.00	29.839 
04:25	49.2	49.2	49.2	96	48.1	0	2	90	0.00	29.839 
04:30	49.2	49.2	49.2	96	48.1	0	1	90	0.00	29.842 
04:35	49.2	49.2	49.2	96	48.1	0	0	---	0.00	29.842 
04:40	49.2	49.2	49.2	96	48.1	0	2	90	0.00	29.842 
04:45	49.2	49.2	49.2	96	48.1	0	1	90	0.00	29.850 
04:50	49.2	49.2	49.2	96	48.1	0	1	90	0.00	29.850 
04:55	49.2	49.2	49.2	96	48.1	0	1	90	0.00	29.850 
05:00	49.2	49.2	49.2	96	48.1	0	0	---	0.00	29.861 
05:05	49.2	49.2	49.2	96	48.1	0	0	---	0.00	29.861 
05:10	49.2	49.2	49.2	96	48.1	0	1	90	0.00	29.861 
05:15	49.2	49.2	49.2	96	48.1	0	1	90	0.00	29.850 
05:20	49.2	49.2	49.2	96	48.1	0	1	90	0.00	29.850 
05:25	49.2	49.2	49.2	96	48.1	0	1	90	0.00	29.850 
05:30	49.2	49.2	49.2	96	48.1	0	1	90	0.00	29.859 
05:35	49.2	49.2	49.2	96	48.1	0	2	90	0.00	29.859 
05:40	49.2	49.2	49.2	96	48.1	0	0	---	0.00	29.859 
05:45	49.2	49.2	49.2	96	48.1	0	0	---	0.00	29.854 
05:50	49.2	49.2	49.2	96	48.1	0	1	90	0.00	29.854 
05:55	49.2	49.2	49.2	96	48.1	0	0	---	0.00	29.854 
06:00	49.2	49.2	49.2	96	48.1	0	0	---	0.00	29.861 
06:05	49.2	49.2	49.2	96	48.1	0	1	90	0.00	29.861 
06:10	49.2	49.2	49.2	96	48.1	0	0	---	0.00	29.861 
06:15	49.2	49.2	49.2	96	48.1	0	0	---	0.00	29.866 
06:20	49.2	49.2	49.2	96	48.1	0	0	---	0.00	29.866 
06:25	49.1	49.1	49.1	97	48.3	0	0	---	0.00	29.866 
06:30	49.1	49.1	49.1	97	48.3	0	1	90	0.00	29.854 
06:35	49.1	49.1	49.1	97	48.3	0	1	90	0.00	29.854 
06:40	49.1	49.1	49.1	97	48.3	0	0	---	0.00	29.854 
06:45	49.2	49.2	49.2	97	48.4	0	0	---	0.00	29.864 
06:50	49.2	49.2	49.2	97	48.4	0	0	---	0.00	29.864 
06:55	49.2	49.2	49.2	97	48.4	0	0	---	0.00	29.864 
07:00	49.2	49.2	49.2	97	48.4	0	0	---	0.00	29.877 
07:05	49.2	49.2	49.2	97	48.4	0	0	---	0.00	29.877 
07:10	49.2	49.2	49.2	97	48.4	0	0	---	0.00	29.877 
07:15	49.4	49.4	49.4	97	48.6	0	2	90	0.00	29.872 
07:20	49.4	49.4	49.4	97	48.6	0	1	90	0.00	29.872 
07:25	49.4	49.4	49.4	97	48.6	0	2	90	0.00	29.872 
07:30	49.4	49.4	49.4	97	48.6	1	3	90	0.00	29.873 
07:35	49.4	49.4	49.4	97	48.6	0	2	90	0.00	29.873 
07:40	49.4	49.4	49.4	97	48.6	0	2	90	0.00	29.873 
07:45	49.4	49.4	49.4	97	48.6	0	1	90	0.00	29.881 
07:50	49.5	49.5	49.5	97	48.7	0	2	90	0.00	29.881 
07:55	49.4	49.4	49.4	97	48.6	0	2	90	0.00	29.881 
08:00	49.4	49.4	49.4	97	48.6	1	2	90	0.00	29.886 
08:05	49.4	49.4	49.4	97	48.6	0	2	90	0.00	29.886 
08:10	49.4	49.4	49.4	97	48.6	0	3	90	0.00	29.886 
08:15	49.4	49.4	49.4	97	48.6	0	0	---	0.00	29.885 
08:20	49.4	49.4	49.4	97	48.6	0	2	90	0.00	29.885 
08:25	49.5	49.5	49.5	97	48.7	0	3	90	0.00	29.885 
08:30	49.5	49.5	49.5	97	48.7	0	2	90	0.00	29.885 
08:35	49.6	49.6	49.6	97	48.8	0	2	90	0.00	29.885 
08:40	49.6	49.6	49.6	97	48.8	1	3	90	0.00	29.885 
08:45	49.6	49.6	49.6	97	48.8	0	2	90	0.00	29.885 
08:50	49.6	49.6	49.6	97	48.8	0	2	90	0.00	29.885 
08:55	49.6	49.6	49.6	97	48.8	0	2	90	0.00	29.885 
09:00	49.8	49.8	49.8	97	49.0	0	2	90	0.00	29.898 
09:05	49.9	49.9	49.9	97	49.1	0	2	90	0.00	29.898 
09:10	50.2	50.2	50.2	97	49.4	0	2	90	0.00	29.898 
09:15	50.2	50.2	50.2	97	49.4	1	3	90	0.00	29.905 
09:20	50.2	50.2	50.2	97	49.4	0	1	90	0.00	29.905 
09:25	50.4	50.4	50.4	97	49.6	0	3	90	0.00	29.905 
09:30	50.5	50.5	50.5	97	49.7	0	0	---	0.00	29.904 
09:35	50.5	50.5	50.5	97	49.7	0	0	---	0.00	29.904 
09:40	50.8	50.8	50.8	97	50.0	0	2	90	0.00	29.904 
09:45	51.0	51.0	51.0	97	50.2	0	1	90	0.00	29.906 
09:50	51.1	51.1	51.1	97	50.3	0	0	---	0.00	29.906 
09:55	51.0	51.0	51.0	97	50.2	0	1	90	0.00	29.906 
10:00	51.1	51.1	51.1	97	50.3	0	2	90	0.00	29.910 
10:05	51.3	51.3	51.3	97	50.5	0	2	90	0.00	29.910 
10:10	51.3	51.3	51.3	97	50.5	0	2	90	0.00	29.910 
10:15	51.6	51.6	51.6	97	50.8	0	1	90	0.00	29.906 
10:20	51.7	51.7	51.7	97	50.9	0	2	90	0.00	29.906 
10:25	52.0	52.0	52.0	97	51.2	0	2	90	0.00	29.906 
10:30	52.0	52.0	52.0	97	51.2	0	1	90	0.00	29.911 
10:35	52.0	52.0	52.0	97	51.2	0	1	90	0.00	29.911 
10:40	52.2	52.2	52.2	97	51.4	0	2	90	0.00	29.911 
10:45	52.2	52.2	52.2	97	51.4	1	3	90	0.00	29.912 
10:50	52.2	52.2	52.2	97	51.4	0	1	90	0.00	29.912 
10:55	52.5	52.5	52.5	97	51.7	1	3	90	0.00	29.912 
11:00	52.6	52.6	52.6	97	51.8	0	3	90	0.00	29.915 
11:05	52.6	52.6	52.6	97	51.8	1	4	90	0.00	29.915 
11:10	52.9	52.9	52.9	97	52.1	0	2	90	0.00	29.915 
11:15	53.1	53.1	53.1	97	52.3	0	3	90	0.00	29.922 
11:20	52.9	52.9	52.9	97	52.1	1	3	90	0.00	29.922 
11:25	52.9	52.9	52.9	97	52.1	0	2	90	0.00	29.922 
11:30	53.1	53.1	53.1	97	52.3	1	3	90	0.00	29.925 
11:35	53.3	53.3	53.3	97	52.5	0	2	90	0.00	29.925 
11:40	53.5	53.5	53.5	97	52.7	0	2	90	0.00	29.925 
11:45	53.6	53.6	53.6	97	52.8	0	2	90	0.00	29.926 
11:50	53.8	53.8	53.8	97	53.0	0	2	90	0.00	29.926 
11:55	53.9	53.9	53.9	97	53.1	0	3	90	0.00	29.926 
12:00	54.2	54.2	54.2	97	53.4	0	3	90	0.00	29.927 
12:05	54.4	54.4	54.4	97	53.6	0	3	90	0.00	29.927 
12:10	54.2	54.2	54.2	97	53.4	0	1	90	0.00	29.927 
12:15	54.4	54.4	54.4	97	53.6	0	1	68	0.00	29.932 
12:20	54.4	54.4	54.4	97	53.6	0	1	68	0.00	29.932 
12:25	54.5	54.5	54.5	97	53.7	0	0	---	0.00	29.932 
12:30	54.5	54.5	54.5	96	53.4	0	1	68	0.00	29.930 
12:35	54.5	54.5	54.5	96	53.4	0	2	68	0.00	29.930 
12:40	54.7	54.7	54.7	96	53.6	1	2	68	0.00	29.930 
12:45	54.7	54.7	54.7	96	53.6	0	2	68	0.00	29.924 
12:50	54.8	54.8	54.8	96	53.7	0	0	---	0.00	29.924 
12:55	55.0	55.0	55.0	96	53.9	0	2	68	0.00	29.924 
13:00	55.1	55.1	55.1	96	54.0	0	1	68	0.00	29.924 
13:05	55.3	55.3	55.3	96	54.2	0	2	68	0.00	29.924 
13:10	55.6	55.6	55.6	96	54.5	0	2	68	0.00	29.924 
13:15	55.6	55.6	55.6	96	54.5	0	2	68	0.00	29.921 
13:20	55.7	55.7	55.7	96	54.6	0	1	68	0.00	29.921 
13:25	55.7	55.7	55.7	95	54.3	0	2	68	0.00	29.921 
13:30	55.6	55.6	55.6	95	54.2	0	1	68	0.00	29.922 
13:35	55.6	55.6	55.6	95	54.2	0	1	68	0.00	29.922 
13:40	55.6	55.6	55.6	95	54.2	0	2	68	0.00	29.922 
13:45	55.7	55.7	55.7	95	54.3	0	1	68	0.00	29.922 
13:50	55.9	55.9	55.9	94	54.2	0	0	---	0.00	29.922 
13:55	56.0	56.0	56.0	94	54.3	0	2	68	0.00	29.922 
14:00	56.2	56.2	56.2	93	54.2	0	2	68	0.00	29.921 
14:05	56.3	56.3	56.3	93	54.3	0	2	68	0.00	29.921 
14:10	56.6	56.6	56.6	92	54.3	0	2	68	0.00	29.921 
14:15	56.7	56.7	56.7	92	54.4	0	1	68	0.00	29.921 
14:20	57.0	57.0	57.0	91	54.4	0	1	68	0.00	29.921 
14:25	57.0	57.0	57.0	91	54.4	0	0	---	0.00	29.921 
14:30	57.2	57.2	57.2	90	54.3	0	1	68	0.00	29.921 
14:35	57.2	57.2	57.2	90	54.3	0	2	68	0.00	29.921 
14:40	57.2	57.2	57.2	90	54.3	0	1	68	0.00	29.921 
14:45	57.3	57.3	57.3	89	54.1	0	1	68	0.00	29.922 
14:50	57.3	57.3	57.3	89	54.1	0	1	68	0.00	29.922 
14:55	57.5	57.5	57.5	88	54.0	0	2	68	0.00	29.922 
15:00	57.5	57.5	57.5	88	54.0	1	2	68	0.00	29.920 
15:05	57.6	57.6	57.6	87	53.8	1	2	68	0.00	29.920 
15:10	57.6	57.6	57.6	87	53.8	0	1	68	0.00	29.920 
15:15	57.8	57.8	57.8	87	54.0	0	0	---	0.00	29.920 
15:20	58.0	58.0	58.0	87	54.1	0	1	68	0.00	29.920 
15:25	58.0	58.0	58.0	87	54.1	0	2	68	0.00	29.920 
15:30	58.1	58.1	58.1	87	54.2	0	3	68	0.00	29.920 
15:35	58.1	58.1	58.1	86	53.9	1	3	68	0.00	29.920 
15:40	58.4	58.4	58.4	86	54.2	0	1	68	0.00	29.920 
15:45	58.7	58.7	58.7	86	54.5	0	2	68	0.00	29.918 
15:50	58.6	58.6	58.6	85	54.1	0	1	68	0.00	29.918 
15:55	58.7	58.7	58.7	85	54.2	0	2	68	0.00	29.918 
16:00	58.9	58.9	58.9	85	54.4	0	1	68	0.00	29.916 
16:05	59.0	59.0	59.0	85	54.5	0	1	68	0.00	29.916 
16:10	59.0	59.0	59.0	85	54.5	0	1	68	0.00	29.916 
16:15	59.0	59.0	59.0	85	54.5	0	2	68	0.00	29.911 
16:20	59.2	59.2	59.2	85	54.7	0	2	68	0.00	29.911 
16:25	59.0	59.0	59.0	85	54.5	0	2	68	0.00	29.911 
16:30	59.2	59.2	59.2	85	54.7	0	2	68	0.00	29.906 
16:35	59.2	59.2	59.2	85	54.7	0	2	68	0.00	29.906 
16:40	59.2	59.2	59.2	85	54.7	0	2	68	0.00	29.906 
16:45	59.0	59.0	59.0	84	54.2	0	2	45	0.00	29.907 
16:50	58.9	58.9	58.9	84	54.1	0	0	---	0.00	29.907 
16:55	58.9	58.9	58.9	85	54.4	0	0	---	0.00	29.907 
17:00	58.7	58.7	58.7	84	53.9	0	1	45	0.00	29.909 
17:05	58.6	58.6	58.6	85	54.1	0	1	45	0.00	29.909 
17:10	58.4	58.4	58.4	85	53.9	0	1	45	0.00	29.909 
17:15	58.3	58.3	58.3	85	53.8	0	3	45	0.00	29.915 
17:20	58.3	58.3	58.3	86	54.1	0	1	45	0.00	29.915 
17:25	58.3	58.3	58.3	86	54.1	0	1	45	0.00	29.915 
17:30	58.3	58.3	58.3	86	54.1	0	2	45	0.00	29.907 
17:35	58.3	58.3	58.3	86	54.1	0	2	45	0.00	29.907 
17:40	58.3	58.3	58.3	86	54.1	0	1	45	0.00	29.907 
17:45	58.1	58.1	58.1	86	53.9	0	3	45	0.00	29.912 
17:50	58.1	58.1	58.1	86	53.9	0	2	45	0.00	29.912 
17:55	58.0	58.0	58.0	86	53.8	0	2	45	0.00	29.912 
18:00	58.0	58.0	58.0	86	53.8	0	1	45	0.00	29.904 
18:05	57.8	57.8	57.8	86	53.6	0	1	45	0.00	29.904 
18:10	57.8	57.8	57.8	86	53.6	0	3	45	0.00	29.904 
18:15	57.6	57.6	57.6	86	53.4	1	4	45	0.00	29.905 
18:20	57.5	57.5	57.5	86	53.3	0	2	112	0.00	29.905 
18:25	57.2	57.2	57.2	86	53.0	1	4	90	0.00	29.905 
18:30	57.0	57.0	57.0	87	53.2	0	3	112	0.00	29.902 
18:35	56.9	56.9	56.9	87	53.1	1	5	0	0.00	29.902 
18:40	56.7	56.7	56.7	87	52.9	1	3	68	0.00	29.902 
18:45	56.7	56.7	56.7	87	52.9	0	2	68	0.00	29.898 
18:50	56.7	56.7	56.7	88	53.2	0	3	68	0.00	29.898 
18:55	56.6	56.6	56.6	88	53.1	1	3	45	0.00	29.898 
19:00	56.5	56.5	56.5	88	53.0	1	5	112	0.00	29.896 
19:05	56.3	56.3	56.3	88	52.8	2	6	90	0.00	29.896 
19:10	56.2	56.2	56.2	88	52.7	1	5	90	0.00	29.896 
19:15	56.0	56.0	56.0	88	52.5	0	2	90	0.00	29.907 
19:20	56.0	56.0	56.0	88	52.5	1	5	90	0.00	29.907 
19:25	55.9	55.9	55.9	88	52.4	0	5	90	0.00	29.907 
19:30	55.7	55.7	55.7	89	52.5	2	6	90	0.00	29.903 
19:35	55.4	55.4	55.4	89	52.2	3	10	90	0.00	29.903 
19:40	55.3	55.3	55.3	89	52.1	2	9	112	0.00	29.903 
19:45	55.1	55.1	55.1	90	52.2	1	3	112	0.00	29.916 
19:50	55.1	55.1	55.1	90	52.2	1	4	90	0.00	29.916 
19:55	55.0	55.0	55.0	90	52.1	1	6	135	0.00	29.916 
20:00	55.0	55.0	55.0	90	52.1	1	4	135	0.00	29.908 
20:05	55.0	55.0	55.0	90	52.1	1	4	90	0.00	29.908 
20:10	54.8	54.8	54.8	90	51.9	2	5	90	0.00	29.908 
20:15	54.8	54.8	54.8	90	51.9	1	4	90	0.00	29.901 
20:20	54.8	54.8	54.8	90	51.9	3	9	112	0.00	29.901 
20:25	54.7	54.7	54.7	90	51.8	2	6	90	0.00	29.901 
20:30	54.5	54.5	54.5	90	51.6	2	6	90	0.00	29.894 
20:35	54.4	54.4	54.4	91	51.8	1	7	90	0.00	29.894 
20:40	54.2	54.2	54.2	91	51.6	0	4	112	0.00	29.894 
20:45	54.2	54.2	54.2	91	51.6	1	6	112	0.00	29.892 
20:50	54.2	54.2	54.2	90	51.3	2	6	112	0.00	29.892 
20:55	54.2	54.2	54.2	90	51.3	2	6	112	0.00	29.892 
21:00	54.2	54.2	54.2	90	51.3	2	6	112	0.00	29.893 
21:05	54.2	54.2	54.2	90	51.3	2	6	90	0.00	29.893 
21:10	54.2	54.2	54.2	90	51.3	0	2	112	0.00	29.893 
21:15	54.4	54.4	54.4	90	51.5	2	6	112	0.00	29.895 
21:20	54.4	54.4	54.4	90	51.5	1	3	135	0.00	29.895 
21:25	54.4	54.4	54.4	90	51.5	1	4	135	0.00	29.895 
21:30	54.2	54.2	54.2	90	51.3	2	7	112	0.00	29.896 
21:35	53.9	53.9	53.9	90	51.0	3	9	112	0.00	29.896 
21:40	53.8	53.8	53.8	90	50.9	3	8	90	0.00	29.896 
21:45	53.6	53.6	53.6	90	50.7	3	10	112	0.00	29.891 
21:50	53.5	53.5	53.5	91	50.9	3	7	112	0.00	29.891 
21:55	53.3	53.3	53.3	91	50.7	2	6	112	0.00	29.891 
22:00	53.3	53.3	53.3	91	50.7	1	5	112	0.00	29.892 
22:05	53.2	53.2	53.2	91	50.6	1	9	112	0.00	29.892 
22:10	53.2	53.2	53.2	92	50.9	1	6	90	0.00	29.892 
22:15	53.1	53.1	53.1	92	50.8	1	6	112	0.00	29.888 
22:20	52.9	52.9	52.9	92	50.6	1	5	112	0.00	29.888 
22:25	52.8	52.8	52.8	92	50.5	1	6	112	0.00	29.888 
22:30	52.6	52.6	52.6	92	50.3	1	9	90	0.00	29.881 
22:35	52.6	52.6	52.6	92	50.3	1	6	90	0.00	29.881 
22:40	52.5	52.5	52.5	92	50.2	2	6	68	0.00	29.881 
22:45	52.5	52.5	52.5	93	50.5	3	7	112	0.00	29.881 
22:50	52.5	52.5	52.5	93	50.5	2	6	90	0.00	29.881 
22:55	52.3	52.3	52.3	93	50.3	0	1	90	0.02	29.881 
23:00	52.3	52.3	52.3	93	50.3	1	4	112	0.01	29.900 
23:05	52.2	52.2	52.2	93	50.2	0	2	112	0.02	29.900 
23:10	52.2	52.2	52.2	93	50.2	0	2	112	0.01	29.900 
23:15	52.2	52.2	52.2	93	50.2	0	4	112	0.03	29.921 
23:20	52.2	52.2	52.2	93	50.2	0	4	112	0.04	29.921 
23:25	52.0	52.0	52.0	94	50.3	2	4	112	0.03	29.921 
23:30	52.0	52.0	52.0	94	50.3	1	4	112	0.02	29.899 
23:35	51.9	51.9	51.9	94	50.2	1	4	112	0.01	29.899 
23:40	51.9	51.9	51.9	94	50.2	0	2	112	0.01	29.899 
23:45	51.9	51.9	51.9	94	50.2	1	3	112	0.00	29.889 
23:50	51.7	51.7	51.7	94	50.0	1	4	112	0.00	29.889 
23:55	51.6	51.6	51.6	94	49.9	1	6	112	0.01	29.889 

CoCoRaHS
IN-AL-39
A2 Web Hosting
Creative Commons License
GoDaddy
search engine by freefind advanced

loaded 2018-11-22 05:55:18 • last modified 2010-11-18 10:43:29
Privacy PolicyDisclaimer
• wx.awcolley.com is powered by PmWiki v.2002016 •
• all content (unless otherwise noted) © 2018 A W Colley